Time;durP1;ratioP1;P1;durP2;ratioP2;P2;SDS_P1;SDS_P2;PMS_P1;PMS_P2;Temp;Humidity;BMP_temperature;BMP_pressure;BME280_temperature;BME280_humidity;BME280_pressure;Samples;Min_cycle;Max_cycle;Signal;HPM_P1;HPM_P2
2023/12/19 00:00:07;;;;;;;10.95;6.68;;;;;;;6.24;100.00;102633.84;5075390;27;96997;-28
2023/12/19 00:02:32;;;;;;;7.65;4.60;;;;;;;6.24;100.00;102627.59;5075616;27;101021;-27
2023/12/19 00:04:58;;;;;;;5.90;3.97;;;;;;;6.27;100.00;102630.22;5094395;27;99153;-27
2023/12/19 00:07:23;;;;;;;6.45;3.70;;;;;;;6.25;100.00;102627.56;5094122;27;96491;-27
2023/12/19 00:09:49;;;;;;;11.43;4.78;;;;;;;6.24;100.00;102622.19;5094627;27;100039;-27
2023/12/19 00:12:14;;;;;;;14.02;4.93;;;;;;;6.27;100.00;102620.38;5094093;27;99748;-27
2023/12/19 00:14:40;;;;;;;7.28;3.65;;;;;;;6.26;100.00;102607.81;5094537;27;97584;-28
2023/12/19 00:17:05;;;;;;;6.95;3.95;;;;;;;6.27;100.00;102604.22;5094665;27;96566;-27
2023/12/19 00:19:30;;;;;;;6.20;4.00;;;;;;;6.29;100.00;102591.63;5094368;27;96830;-27
2023/12/19 00:21:56;;;;;;;7.13;4.25;;;;;;;6.32;100.00;102594.28;5093732;27;97942;-28
2023/12/19 00:24:21;;;;;;;7.07;4.47;;;;;;;6.31;100.00;102586.22;5094013;27;99289;-27
2023/12/19 00:26:47;;;;;;;8.70;5.18;;;;;;;6.26;100.00;102572.81;5094298;27;96539;-28
2023/12/19 00:29:12;;;;;;;7.75;4.45;;;;;;;6.29;100.00;102578.19;5094234;27;96756;-27
2023/12/19 00:31:37;;;;;;;7.75;4.05;;;;;;;6.34;100.00;102576.31;5093917;27;97977;-27
2023/12/19 00:34:03;;;;;;;14.95;4.82;;;;;;;6.32;100.00;102556.59;5094358;27;100012;-28
2023/12/19 00:36:28;;;;;;;8.27;4.82;;;;;;;6.33;100.00;102549.41;5094236;27;96563;-28
2023/12/19 00:38:53;;;;;;;5.15;3.17;;;;;;;6.39;100.00;102557.41;5094582;27;96851;-28
2023/12/19 00:41:19;;;;;;;12.43;5.15;;;;;;;6.37;100.00;102548.44;5075520;27;97525;-29
2023/12/19 00:43:45;;;;;;;7.85;4.85;;;;;;;6.36;100.00;102550.25;5093744;27;97888;-27
2023/12/19 00:46:11;;;;;;;6.85;3.88;;;;;;;6.40;100.00;102553.78;5074884;27;97169;-27
2023/12/19 00:48:37;;;;;;;9.25;5.40;;;;;;;6.37;100.00;102552.03;5075337;27;96845;-28
2023/12/19 00:51:07;;;;;;;6.60;4.18;;;;;;;6.36;100.00;102549.34;5093972;27;96889;-27
2023/12/19 00:53:33;;;;;;;10.73;4.72;;;;;;;6.41;100.00;102547.47;5075149;27;100755;-28
2023/12/19 00:55:58;;;;;;;6.03;3.65;;;;;;;6.44;100.00;102560.91;5093847;27;96551;-28
2023/12/19 00:58:23;;;;;;;8.95;5.13;;;;;;;6.46;100.00;102551.00;5093556;27;96838;-28
2023/12/19 01:00:49;;;;;;;9.73;5.28;;;;;;;6.44;100.00;102541.16;5093408;27;97909;-29
2023/12/19 01:03:14;;;;;;;12.35;6.18;;;;;;;6.44;100.00;102541.16;5093959;27;97607;-28
2023/12/19 01:05:40;;;;;;;12.85;5.18;;;;;;;6.44;100.00;102538.47;5093534;27;96587;-27
2023/12/19 01:08:06;;;;;;;9.07;4.15;;;;;;;6.48;100.00;102541.06;5093617;27;96865;-28
2023/12/19 01:10:31;;;;;;;6.07;3.80;;;;;;;6.49;100.00;102537.47;5092805;27;98305;-28
2023/12/19 01:12:56;;;;;;;12.52;6.20;;;;;;;6.45;100.00;102527.66;5074577;27;99384;-27
2023/12/19 01:15:23;;;;;;;8.40;4.70;;;;;;;6.46;100.00;102531.25;5093627;27;96584;-29
2023/12/19 01:17:49;;;;;;;10.65;4.78;;;;;;;6.45;100.00;102521.41;5092795;27;96789;-27
2023/12/19 01:20:14;;;;;;;6.40;3.63;;;;;;;6.48;100.00;102530.28;5093776;27;97447;-28
2023/12/19 01:22:39;;;;;;;6.63;3.50;;;;;;;6.43;100.00;102509.75;5093317;27;97372;-28
2023/12/19 01:25:05;;;;;;;7.82;5.40;;;;;;;6.49;100.00;102528.50;5093408;27;102484;-28
2023/12/19 01:27:30;;;;;;;8.13;3.83;;;;;;;6.48;100.00;102530.28;5093339;27;96859;-29
2023/12/19 01:29:55;;;;;;;6.75;4.68;;;;;;;6.50;100.00;102519.50;5092980;27;99515;-28
2023/12/19 01:32:21;;;;;;;8.30;5.20;;;;;;;6.42;100.00;102502.63;5093077;27;97778;-27
2023/12/19 01:34:46;;;;;;;9.70;5.05;;;;;;;6.45;100.00;102516.91;5092394;27;100926;-28
2023/12/19 01:37:12;;;;;;;7.97;5.07;;;;;;;6.42;100.00;102506.19;5093271;27;96573;-28
2023/12/19 01:39:37;;;;;;;5.47;3.55;;;;;;;6.48;100.00;102510.56;5093246;27;97458;-28
2023/12/19 01:42:02;;;;;;;9.85;4.30;;;;;;;6.46;100.00;102507.00;5093211;27;97775;-28
2023/12/19 01:44:28;;;;;;;9.52;4.45;;;;;;;6.49;100.00;102509.66;5092979;27;96590;-28
2023/12/19 01:46:53;;;;;;;7.07;4.43;;;;;;;6.45;100.00;102502.56;5093342;27;96812;-27
2023/12/19 01:49:18;;;;;;;7.13;4.07;;;;;;;6.51;100.00;102522.19;5093155;27;97418;-28
2023/12/19 01:51:44;;;;;;;7.78;4.35;;;;;;;6.51;100.00;102514.13;5093250;27;97755;-29
2023/12/19 01:54:10;;;;;;;8.05;4.57;;;;;;;6.50;100.00;102511.44;5093100;27;96690;-28
2023/12/19 01:56:36;;;;;;;8.30;3.75;;;;;;;6.48;100.00;102498.00;5074527;27;96835;-27
2023/12/19 01:59:04;;;;;;;5.88;3.45;;;;;;;6.54;100.00;102495.19;5073432;27;100865;-27
2023/12/19 02:01:30;;;;;;;6.55;4.40;;;;;;;6.55;100.00;102499.69;5074272;27;100902;-27
2023/12/19 02:03:56;;;;;;;9.73;3.67;;;;;;;6.51;100.00;102494.38;5093023;27;96465;-27
2023/12/19 02:06:21;;;;;;;10.27;3.97;;;;;;;6.57;100.00;102483.50;5092914;27;96810;-27
2023/12/19 02:08:47;;;;;;;5.32;3.47;;;;;;;6.55;100.00;102482.63;5074525;27;98077;-27
2023/12/19 02:11:12;;;;;;;4.97;3.20;;;;;;;6.57;100.00;102475.41;5092429;27;99535;-28
2023/12/19 02:13:38;;;;;;;10.68;4.25;;;;;;;6.57;100.00;102483.50;5092873;27;96690;-28
2023/12/19 02:16:04;;;;;;;3.95;3.08;;;;;;;6.58;100.00;102487.97;5092961;27;96641;-27
2023/12/19 02:18:30;;;;;;;3.65;2.45;;;;;;;6.53;100.00;102479.97;5092404;27;97395;-27
2023/12/19 02:20:55;;;;;;;8.15;3.05;;;;;;;6.55;100.00;102469.16;5092629;27;97784;-28
2023/12/19 02:23:21;;;;;;;3.63;2.67;;;;;;;6.61;100.00;102479.84;5091914;27;96518;-28
2023/12/19 02:25:46;;;;;;;6.82;4.18;;;;;;;6.55;100.00;102467.38;5092713;27;96814;-28
2023/12/19 02:28:12;;;;;;;8.27;3.45;;;;;;;6.57;100.00;102460.13;5092359;27;98075;-28
2023/12/19 02:30:38;;;;;;;9.50;3.88;;;;;;;6.56;100.00;102444.03;5095575;27;97447;-27
2023/12/19 02:33:04;;;;;;;6.32;3.53;;;;;;;6.59;100.00;102452.03;5096074;27;96500;-28
2023/12/19 02:35:29;;;;;;;5.55;4.00;;;;;;;6.61;100.00;102438.56;5077357;27;96850;-27
2023/12/19 02:37:55;;;;;;;5.13;3.25;;;;;;;6.61;100.00;102439.44;5096188;27;97532;-28
2023/12/19 02:40:20;;;;;;;7.18;3.90;;;;;;;6.63;100.00;102442.13;5096462;27;97269;-27
2023/12/19 02:42:46;;;;;;;5.30;3.33;;;;;;;6.64;100.00;102447.44;5096174;27;96413;-27
2023/12/19 02:45:12;;;;;;;4.90;3.00;;;;;;;6.65;100.00;102434.88;5096141;27;96799;-28
2023/12/19 02:47:37;;;;;;;3.60;3.15;;;;;;;6.59;100.00;102419.75;5076570;27;101585;-27
2023/12/19 02:50:03;;;;;;;5.05;3.03;;;;;;;6.67;100.00;102423.16;5095644;27;97771;-28
2023/12/19 02:52:29;;;;;;;7.47;2.72;;;;;;;6.64;100.00;102401.69;5095576;27;96688;-29
2023/12/19 02:54:54;;;;;;;7.30;4.55;;;;;;;6.64;100.00;102395.41;5095923;27;96776;-32
2023/12/19 02:57:19;;;;;;;6.35;2.53;;;;;;;6.67;100.00;102393.53;5095467;27;98600;-27
2023/12/19 02:59:45;;;;;;;7.40;3.75;;;;;;;6.71;100.00;102399.75;5095009;27;97916;-27
2023/12/19 03:02:10;;;;;;;7.32;4.35;;;;;;;6.70;100.00;102389.91;5076910;27;96605;-29
2023/12/19 03:04:37;;;;;;;3.03;2.00;;;;;;;6.72;100.00;102399.75;5096175;27;96865;-28
2023/12/19 03:07:03;;;;;;;4.20;2.53;;;;;;;6.71;100.00;102389.00;5095434;27;99055;-27
2023/12/19 03:09:28;;;;;;;9.35;3.38;;;;;;;6.69;100.00;102374.66;5095514;27;97889;-28
2023/12/19 03:12:04;;;;;;;8.65;4.28;;;;;;;6.72;100.00;102383.59;5094804;27;96650;-28
2023/12/19 03:14:30;;;;;;;8.45;3.13;;;;;;;6.75;100.00;102378.13;5095336;27;96770;-27
2023/12/19 03:16:55;;;;;;;4.55;3.08;;;;;;;6.75;100.00;102377.25;5076719;27;101061;-28
2023/12/19 03:19:21;;;;;;;7.00;4.40;;;;;;;6.75;100.00;102374.56;5095106;27;99141;-28
2023/12/19 03:21:46;;;;;;;6.88;3.50;;;;;;;6.78;100.00;102369.97;5095313;27;96667;-28
2023/12/19 03:24:11;;;;;;;4.18;2.88;;;;;;;6.75;100.00;102350.31;5095151;27;96772;-28
2023/12/19 03:26:37;;;;;;;6.10;4.07;;;;;;;6.78;100.00;102351.13;5095340;27;97196;-28
2023/12/19 03:29:02;;;;;;;10.68;3.67;;;;;;;6.79;100.00;102347.53;5095375;27;98884;-28
2023/12/19 03:31:27;;;;;;;4.50;2.90;;;;;;;6.76;100.00;102346.69;5095133;27;96615;-29
2023/12/19 03:33:53;;;;;;;5.55;3.58;;;;;;;6.78;100.00;102361.88;5095298;27;96793;-28
2023/12/19 03:36:18;;;;;;;11.57;3.83;;;;;;;6.79;100.00;102343.91;5094596;27;97406;-28
2023/12/19 03:38:44;;;;;;;5.45;3.03;;;;;;;6.79;100.00;102341.22;5094929;27;97306;-27
2023/12/19 03:41:09;;;;;;;8.98;3.70;;;;;;;6.80;100.00;102338.50;5094286;27;96484;-28
2023/12/19 03:43:34;;;;;;;5.47;4.00;;;;;;;6.80;100.00;102321.47;5095080;27;96786;-28
2023/12/19 03:46:01;;;;;;;4.85;3.05;;;;;;;6.79;100.00;102317.91;5094901;27;97281;-28
2023/12/19 03:48:27;;;;;;;3.85;3.00;;;;;;;6.80;100.00;102319.66;5076190;27;100813;-28
2023/12/19 03:50:52;;;;;;;7.57;3.05;;;;;;;6.79;100.00;102298.13;5076083;27;97079;-28
2023/12/19 03:53:17;;;;;;;5.30;3.30;;;;;;;6.81;100.00;102302.56;5095266;27;96801;-28
2023/12/19 03:55:43;;;;;;;9.48;3.42;;;;;;;6.81;100.00;102294.50;5094514;27;97962;-28
2023/12/19 03:58:08;;;;;;;7.15;3.35;;;;;;;6.87;100.00;102298.88;5094832;27;97229;-28
2023/12/19 04:00:33;;;;;;;7.95;4.75;;;;;;;6.82;100.00;102295.41;5094022;27;96549;-28
2023/12/19 04:02:59;;;;;;;4.20;3.20;;;;;;;6.87;100.00;102293.47;5094703;27;96840;-29
2023/12/19 04:05:24;;;;;;;7.75;3.03;;;;;;;6.84;100.00;102289.97;5094346;27;99233;-28
2023/12/19 04:07:49;;;;;;;5.35;2.40;;;;;;;6.85;100.00;102292.63;5094889;27;97252;-28
2023/12/19 04:10:15;;;;;;;8.90;3.70;;;;;;;6.90;100.00;102289.84;5094548;27;96642;-29
2023/12/19 04:12:40;;;;;;;5.07;2.67;;;;;;;6.88;100.00;102286.28;5094555;27;96786;-28
2023/12/19 04:15:08;;;;;;;7.28;2.95;;;;;;;6.91;100.00;102288.91;5094581;27;97904;-28
2023/12/19 04:17:33;;;;;;;6.57;4.38;;;;;;;6.90;100.00;102292.53;5075848;27;100847;-28
2023/12/19 04:19:58;;;;;;;2.83;2.13;;;;;;;6.92;100.00;102291.56;5094415;27;96553;-28
2023/12/19 04:22:24;;;;;;;3.33;2.42;;;;;;;6.92;100.00;102299.66;5094089;27;96885;-32
2023/12/19 04:24:49;;;;;;;4.15;2.80;;;;;;;6.90;100.00;102284.44;5093376;27;99387;-28
2023/12/19 04:27:14;;;;;;;9.85;2.92;;;;;;;6.90;100.00;102285.31;5094268;27;97288;-28
2023/12/19 04:29:40;;;;;;;4.28;3.08;;;;;;;6.87;100.00;102282.72;5094370;27;96722;-27
2023/12/19 04:32:05;;;;;;;5.95;3.05;;;;;;;6.91;100.00;102280.81;5094058;27;96833;-27
2023/12/19 04:34:31;;;;;;;8.70;3.15;;;;;;;6.87;100.00;102262.97;5094094;27;97713;-28
2023/12/19 04:36:56;;;;;;;7.93;2.40;;;;;;;6.86;100.00;102255.81;5094061;27;98038;-27
2023/12/19 04:39:21;;;;;;;6.82;3.13;;;;;;;6.88;100.00;102251.25;5093355;27;98658;-28
2023/12/19 04:41:47;;;;;;;4.15;2.42;;;;;;;6.91;100.00;102262.88;5094550;27;96765;-27
2023/12/19 04:44:12;;;;;;;5.32;2.65;;;;;;;6.89;100.00;102255.72;5093864;27;98872;-27
2023/12/19 04:46:37;;;;;;;6.30;3.65;;;;;;;6.89;100.00;102248.56;5093686;27;99202;-28
2023/12/19 04:49:03;;;;;;;4.68;2.80;;;;;;;6.95;100.00;102255.59;5093268;27;96682;-28
2023/12/19 04:51:28;;;;;;;4.45;2.83;;;;;;;6.96;100.00;102251.97;5093943;27;96804;-27
2023/12/19 04:53:53;;;;;;;4.28;2.95;;;;;;;6.96;100.00;102251.97;5093574;27;98582;-28
2023/12/19 04:56:19;;;;;;;3.67;2.72;;;;;;;6.93;100.00;102239.44;5093484;27;99448;-28
2023/12/19 04:58:46;;;;;;;5.50;3.53;;;;;;;6.96;100.00;102247.47;5093254;27;96795;-28
2023/12/19 05:01:11;;;;;;;6.35;2.97;;;;;;;6.95;100.00;102234.91;5075359;27;96770;-31
2023/12/19 05:03:39;;;;;;;5.15;3.05;;;;;;;6.98;100.00;102233.97;5075040;27;100759;-29
2023/12/19 05:06:06;;;;;;;3.33;2.65;;;;;;;6.98;100.00;102221.41;5075333;27;98914;-28
2023/12/19 05:08:31;;;;;;;5.65;3.42;;;;;;;7.03;100.00;102232.03;5074693;27;96718;-27
2023/12/19 05:10:56;;;;;;;4.30;3.40;;;;;;;7.04;100.00;102223.03;5093905;27;96793;-28
2023/12/19 05:13:22;;;;;;;5.22;3.03;;;;;;;7.04;100.00;102216.78;5093074;27;98019;-28
2023/12/19 05:15:49;;;;;;;4.78;3.25;;;;;;;6.99;100.00;102212.38;5093399;27;102641;-27
2023/12/19 05:18:18;;;;;;;4.38;3.00;;;;;;;7.07;100.00;102214.88;5093686;27;96573;-27
2023/12/19 05:20:44;;;;;;;3.28;2.15;;;;;;;7.11;100.00;102219.28;5093412;27;96940;-29
2023/12/19 05:23:09;;;;;;;4.20;2.33;;;;;;;7.08;100.00;102207.66;5093526;27;97359;-28
2023/12/19 05:25:34;;;;;;;5.18;2.67;;;;;;;7.12;100.00;102212.94;5093081;27;105163;-28
2023/12/19 05:28:00;;;;;;;4.10;2.83;;;;;;;7.14;100.00;102216.50;5093198;27;96579;-27
2023/12/19 05:30:25;;;;;;;4.80;2.60;;;;;;;7.13;100.00;102214.72;5093981;27;96898;-28
2023/12/19 05:32:50;;;;;;;4.82;3.33;;;;;;;7.15;100.00;102223.66;5092912;27;97864;-28
2023/12/19 05:35:15;;;;;;;3.72;2.50;;;;;;;7.14;100.00;102229.97;5093136;27;98829;-27
2023/12/19 05:37:42;;;;;;;5.35;2.85;;;;;;;7.12;100.00;102215.63;5092506;27;96659;-28
2023/12/19 05:40:08;;;;;;;2.97;2.10;;;;;;;7.12;100.00;102210.25;5074540;27;96888;-30
2023/12/19 05:42:33;;;;;;;5.85;3.53;;;;;;;7.16;100.00;102219.16;5092964;27;99504;-28
2023/12/19 05:44:58;;;;;;;5.50;3.38;;;;;;;7.15;100.00;102198.50;5092836;27;99257;-28
2023/12/19 05:47:24;;;;;;;10.02;3.25;;;;;;;7.09;100.00;102204.94;5074975;27;96650;-29
2023/12/19 05:49:49;;;;;;;8.35;2.78;;;;;;;7.11;100.00;102200.41;5093045;27;96843;-28
2023/12/19 05:52:14;;;;;;;8.32;3.90;;;;;;;7.08;100.00;102187.03;5092739;27;97840;-27
2023/12/19 05:54:40;;;;;;;5.07;3.13;;;;;;;7.13;100.00;102192.31;5093228;27;102932;-28
2023/12/19 05:57:05;;;;;;;6.35;3.65;;;;;;;7.10;100.00;102187.84;5093100;27;96557;-28
2023/12/19 05:59:30;;;;;;;6.15;3.80;;;;;;;7.07;100.00;102177.16;5092418;27;96805;-28
2023/12/19 06:01:56;;;;;;;6.20;3.13;;;;;;;7.17;100.00;102181.38;5092289;27;99100;-28
2023/12/19 06:04:21;;;;;;;5.10;2.95;;;;;;;7.17;100.00;102189.47;5093843;27;98883;-28
2023/12/19 06:06:46;;;;;;;5.28;3.17;;;;;;;7.10;100.00;102182.47;5096535;27;96592;-27
2023/12/19 06:09:12;;;;;;;6.88;4.03;;;;;;;7.17;100.00;102194.84;5096678;27;96794;-28
2023/12/19 06:11:38;;;;;;;6.88;3.75;;;;;;;7.15;100.00;102198.50;5077709;27;100933;-28
2023/12/19 06:14:07;;;;;;;8.18;3.80;;;;;;;7.12;100.00;102188.69;5096215;27;99543;-28
2023/12/19 06:16:33;;;;;;;4.65;3.00;;;;;;;7.15;100.00;102188.63;5096703;27;96672;-28
2023/12/19 06:18:58;;;;;;;5.30;3.35;;;;;;;7.13;100.00;102177.00;5096783;27;96831;-28
2023/12/19 06:21:24;;;;;;;4.50;3.00;;;;;;;7.12;100.00;102180.63;5095918;27;97935;-28
2023/12/19 06:23:50;;;;;;;3.88;2.65;;;;;;;7.10;100.00;102174.38;5096307;27;97324;-29
2023/12/19 06:26:15;;;;;;;6.97;2.97;;;;;;;7.08;100.00;102176.25;5095840;27;96619;-28
2023/12/19 06:28:41;;;;;;;7.53;3.13;;;;;;;7.15;100.00;102194.03;5095953;27;97371;-28
2023/12/19 06:31:06;;;;;;;5.90;3.08;;;;;;;7.13;100.00;102177.00;5095958;27;97555;-28
2023/12/19 06:33:32;;;;;;;6.85;3.78;;;;;;;7.14;100.00;102173.38;5077359;27;99786;-28
2023/12/19 06:35:57;;;;;;;3.42;2.60;;;;;;;7.08;100.00;102159.19;5095786;27;96740;-28
2023/12/19 06:38:22;;;;;;;10.52;4.53;;;;;;;7.14;100.00;102165.28;5095999;27;96735;-27
2023/12/19 06:40:48;;;;;;;7.15;3.95;;;;;;;7.13;100.00;102158.16;5096125;27;97945;-30
2023/12/19 06:43:13;;;;;;;5.32;3.83;;;;;;;7.13;100.00;102146.50;5096328;27;97351;-28
2023/12/19 06:45:39;;;;;;;7.00;3.20;;;;;;;7.18;100.00;102155.34;5096067;27;97247;-28
2023/12/19 06:48:05;;;;;;;6.50;3.42;;;;;;;7.19;100.00;102160.66;5095656;27;97343;-27
2023/12/19 06:50:30;;;;;;;5.95;3.53;;;;;;;7.19;100.00;102157.09;5076203;27;98854;-28
2023/12/19 06:52:56;;;;;;;5.47;2.70;;;;;;;7.16;100.00;102154.50;5095822;27;99899;-28
2023/12/19 06:55:21;;;;;;;8.38;4.30;;;;;;;7.19;100.00;102157.09;5095790;27;96631;-30
2023/12/19 06:57:47;;;;;;;12.05;4.93;;;;;;;7.18;100.00;102145.44;5096195;27;96794;-28
2023/12/19 07:00:13;;;;;;;3.88;2.60;;;;;;;7.15;100.00;102155.41;5076607;27;100502;-28
2023/12/19 07:02:38;;;;;;;7.63;4.07;;;;;;;7.17;100.00;102167.91;5095634;27;97859;-27
2023/12/19 07:05:04;;;;;;;7.00;3.45;;;;;;;7.17;100.00;102167.03;5095626;27;96494;-27
2023/12/19 07:07:30;;;;;;;3.92;3.17;;;;;;;7.17;100.00;102164.31;5077285;27;96812;-28
2023/12/19 07:09:55;;;;;;;6.03;3.28;;;;;;;7.14;100.00;102143.75;5095450;27;97532;-28
2023/12/19 07:12:21;;;;;;;8.00;4.47;;;;;;;7.16;100.00;102149.09;5095459;27;101713;-27
2023/12/19 07:14:46;;;;;;;10.27;4.45;;;;;;;7.14;100.00;102142.88;5095175;27;96654;-29
2023/12/19 07:17:11;;;;;;;8.98;4.55;;;;;;;7.07;100.00;102136.75;5094073;27;96831;-28
2023/12/19 07:19:37;;;;;;;10.70;4.90;;;;;;;7.13;100.00;102141.97;5094854;27;99261;-27
2023/12/19 07:22:02;;;;;;;3.80;2.53;;;;;;;7.13;100.00;102141.09;5095616;27;97312;-29
2023/12/19 07:24:29;;;;;;;6.70;2.47;;;;;;;7.11;100.00;102149.22;5095515;27;96504;-29
2023/12/19 07:26:57;;;;;;;5.65;3.17;;;;;;;7.12;100.00;102150.97;5076208;27;97001;-28
2023/12/19 07:29:23;;;;;;;5.38;3.55;;;;;;;7.05;100.00;102122.44;5093436;27;97907;-28
2023/12/19 07:31:48;;;;;;;9.50;3.42;;;;;;;7.13;100.00;102130.34;5094041;27;97977;-29
2023/12/19 07:34:13;;;;;;;12.02;5.35;;;;;;;7.14;100.00;102134.78;5094891;27;96633;-29
2023/12/19 07:36:40;;;;;;;16.00;3.60;;;;;;;7.14;100.00;102127.56;5095084;27;96759;-27
2023/12/19 07:39:06;;;;;;;6.30;3.78;;;;;;;7.13;100.00;102124.94;5075903;27;101241;-28
2023/12/19 07:41:32;;;;;;;6.55;2.70;;;;;;;7.14;100.00;102121.31;5094733;27;99048;-28
2023/12/19 07:43:57;;;;;;;4.18;2.67;;;;;;;7.10;100.00;102116.91;5076311;27;96699;-27
2023/12/19 07:46:23;;;;;;;3.47;2.28;;;;;;;7.13;100.00;102116.84;5095183;27;96738;-27
2023/12/19 07:48:48;;;;;;;6.45;3.35;;;;;;;7.13;100.00;102120.44;5093639;27;98405;-34
2023/12/19 07:51:20;;;;;;;11.07;4.47;;;;;;;7.16;100.00;102128.41;5091996;27;99221;-28
2023/12/19 07:53:46;;;;;;;4.53;3.25;;;;;;;7.14;100.00;102116.78;5073646;27;96812;-28
2023/12/19 07:56:11;;;;;;;14.38;4.70;;;;;;;7.15;100.00;102123.06;5075101;27;97178;-30
2023/12/19 07:58:37;;;;;;;6.57;3.60;;;;;;;7.19;100.00;102117.56;5092109;27;99025;-29
2023/12/19 08:01:02;;;;;;;5.78;2.92;;;;;;;7.19;100.00;102114.84;5074766;27;100885;-28
2023/12/19 08:03:29;;;;;;;3.92;2.65;;;;;;;7.17;100.00;102116.69;5094175;27;96678;-28
2023/12/19 08:05:56;;;;;;;7.25;3.92;;;;;;;7.19;100.00;102108.59;5094701;27;96775;-29
2023/12/19 08:08:21;;;;;;;2.53;1.98;;;;;;;7.21;100.00;102117.53;5094642;27;97981;-29
2023/12/19 08:10:47;;;;;;;3.90;2.78;;;;;;;7.24;100.00;102117.44;5094580;27;97325;-27
2023/12/19 08:13:12;;;;;;;5.00;3.25;;;;;;;7.25;100.00;102110.25;5094472;27;96547;-28
2023/12/19 08:15:38;;;;;;;4.10;2.40;;;;;;;7.22;100.00;102114.78;5093236;27;96932;-28
2023/12/19 08:18:04;;;;;;;7.88;3.33;;;;;;;7.25;100.00;102107.56;5092843;27;97722;-29
2023/12/19 08:20:29;;;;;;;8.45;3.78;;;;;;;7.23;100.00;102099.50;5093550;27;99797;-27
2023/12/19 08:22:56;;;;;;;6.00;2.88;;;;;;;7.28;100.00;102108.34;5094561;27;96544;-28
2023/12/19 08:25:21;;;;;;;4.78;2.75;;;;;;;7.28;100.00;102094.88;5075714;27;96880;-28
2023/12/19 08:27:46;;;;;;;7.13;3.72;;;;;;;7.31;100.00;102097.47;5093198;27;99388;-28
2023/12/19 08:30:12;;;;;;;5.53;2.25;;;;;;;7.30;100.00;102097.53;5094221;27;97127;-28
2023/12/19 08:32:38;;;;;;;2.30;1.88;;;;;;;7.36;100.00;102100.03;5092733;27;98905;-31
2023/12/19 08:35:05;;;;;;;2.80;2.33;;;;;;;7.33;100.00;102106.41;5073125;27;96934;-28
2023/12/19 08:37:31;;;;;;;4.97;2.92;;;;;;;7.35;100.00;102098.28;5072743;27;99898;-28
2023/12/19 08:39:57;;;;;;;3.60;2.88;;;;;;;7.35;100.00;102090.19;5091435;27;99499;-29
2023/12/19 08:42:23;;;;;;;3.95;2.03;;;;;;;7.35;100.00;102085.69;5091475;27;97130;-32
2023/12/19 08:44:52;;;;;;;5.80;3.20;;;;;;;7.40;100.00;102097.22;5092048;27;96992;-28
2023/12/19 08:47:17;;;;;;;4.40;2.47;;;;;;;7.42;100.00;102081.00;5091855;27;97363;-31
2023/12/19 08:49:43;;;;;;;6.43;2.92;;;;;;;7.40;100.00;102082.84;5093617;27;97318;-28
2023/12/19 08:52:12;;;;;;;4.28;2.33;;;;;;;7.41;100.00;102077.44;5074836;27;96577;-29
2023/12/19 08:54:37;;;;;;;5.70;2.35;;;;;;;7.45;100.00;102089.00;5075201;27;97228;-28
2023/12/19 08:57:04;;;;;;;6.70;2.85;;;;;;;7.47;100.00;102081.75;5093787;27;98003;-29
2023/12/19 08:59:29;;;;;;;4.60;2.65;;;;;;;7.47;100.00;102076.38;5093058;27;98948;-29
2023/12/19 09:01:55;;;;;;;2.47;2.10;;;;;;;7.51;100.00;102071.75;5093963;27;96493;-27
2023/12/19 09:04:21;;;;;;;8.35;2.42;;;;;;;7.44;100.00;102060.28;5093945;27;96739;-27
2023/12/19 09:06:50;;;;;;;2.95;2.17;;;;;;;7.47;100.00;102065.59;5075003;27;100874;-28
2023/12/19 09:09:16;;;;;;;3.35;2.22;;;;;;;7.54;100.00;102072.56;5094055;27;97327;-28
2023/12/19 09:11:42;;;;;;;3.67;2.55;;;;;;;7.53;100.00;102070.81;5075137;27;96596;-28
2023/12/19 09:14:08;;;;;;;2.78;2.08;;;;;;;7.51;100.00;102077.16;5093410;27;96838;-28
2023/12/19 09:16:33;;;;;;;1.60;1.27;;;;;;;7.56;100.00;102068.00;5074288;27;100632;-28
2023/12/19 09:18:59;;;;;;;4.35;2.97;;;;;;;7.58;100.00;102067.94;5093375;27;97778;-28
2023/12/19 09:21:26;;;;;;;4.28;2.35;;;;;;;7.56;100.00;102059.94;5075125;27;96622;-28
2023/12/19 09:23:52;;;;;;;6.10;2.50;;;;;;;7.57;100.00;102060.81;5074995;27;96694;-28
2023/12/19 09:26:17;;;;;;;2.45;2.00;;;;;;;7.56;100.00;102050.97;5093675;27;97827;-28
2023/12/19 09:28:42;;;;;;;4.35;3.13;;;;;;;7.61;100.00;102059.78;5093281;27;97862;-28
2023/12/19 09:31:08;;;;;;;4.00;2.33;;;;;;;7.55;100.00;102036.56;5093453;27;96587;-28
2023/12/19 09:33:37;;;;;;;5.05;2.78;;;;;;;7.61;100.00;102049.00;5093421;27;96904;-28
2023/12/19 09:36:04;;;;;;;4.10;2.22;;;;;;;7.59;100.00;102048.16;5074675;27;100767;-27
2023/12/19 09:38:29;;;;;;;3.78;2.08;;;;;;;7.59;100.00;102043.66;5074506;27;101362;-28
2023/12/19 09:40:55;;;;;;;4.38;2.25;;;;;;;7.59;100.00;102035.56;5096422;27;96540;-29
2023/12/19 09:43:20;;;;;;;6.05;3.50;;;;;;;7.56;100.00;102029.38;5096917;27;96797;-27
2023/12/19 09:45:48;;;;;;;5.28;3.17;;;;;;;7.56;100.00;102030.28;5096586;27;99338;-28
2023/12/19 09:48:14;;;;;;;4.80;2.15;;;;;;;7.60;100.00;102031.94;5078152;27;101045;-28
2023/12/19 09:50:44;;;;;;;5.00;2.28;;;;;;;7.59;100.00;102021.19;5096456;27;96522;-29
2023/12/19 09:53:10;;;;;;;4.07;2.90;;;;;;;7.60;100.00;102021.16;5078116;27;96870;-28
2023/12/19 09:55:43;;;;;;;3.22;1.80;;;;;;;7.62;100.00;102029.19;5077918;27;100945;-28
2023/12/19 09:58:09;;;;;;;4.00;2.10;;;;;;;7.57;100.00;102018.53;5078391;27;98895;-28
2023/12/19 10:00:39;;;;;;;3.33;2.40;;;;;;;7.60;100.00;102023.88;5096247;27;96821;-29
2023/12/19 10:03:04;;;;;;;4.63;3.15;;;;;;;7.62;100.00;102029.19;5078082;27;96749;-28
2023/12/19 10:05:30;;;;;;;4.00;2.33;;;;;;;7.61;100.00;102022.03;5095735;27;99604;-28
2023/12/19 10:07:57;;;;;;;3.67;2.35;;;;;;;7.60;100.00;102018.47;5096248;27;99344;-28
2023/12/19 10:10:28;;;;;;;4.20;2.95;;;;;;;7.58;100.00;102025.72;5078028;27;96565;-28
2023/12/19 10:12:53;;;;;;;4.00;2.78;;;;;;;7.58;100.00;102003.25;5078039;27;96711;-28
2023/12/19 10:15:19;;;;;;;3.45;2.30;;;;;;;7.62;100.00;102016.59;5096134;27;99820;-28
2023/12/19 10:18:04;;;;;;;4.07;2.70;;;;;;;7.64;100.00;102012.03;5096493;27;97794;-28
2023/12/19 10:20:30;;;;;;;3.38;2.20;;;;;;;7.62;100.00;102004.91;5096111;27;96575;-28
2023/12/19 10:23:03;;;;;;;3.20;2.53;;;;;;;7.64;100.00;102006.63;5096353;27;97039;-27
2023/12/19 10:25:28;;;;;;;2.50;1.45;;;;;;;7.63;100.00;101986.00;5096249;27;97947;-28
2023/12/19 10:28:09;;;;;;;4.15;2.10;;;;;;;7.66;100.00;101983.22;5096363;27;97916;-28
2023/12/19 10:30:36;;;;;;;2.93;1.50;;;;;;;7.71;100.00;101992.97;5076974;27;96981;-28
2023/12/19 10:33:05;;;;;;;1.50;1.30;;;;;;;7.69;100.00;101975.97;5077270;27;97586;-29
2023/12/19 10:35:40;;;;;;;4.57;2.35;;;;;;;7.75;100.00;101978.47;5077123;27;100982;-30
2023/12/19 10:38:06;;;;;;;2.70;1.95;;;;;;;7.71;100.00;101966.88;5095869;27;98012;-27
2023/12/19 10:40:32;;;;;;;3.95;2.35;;;;;;;7.76;100.00;101972.13;5095769;27;96590;-28
2023/12/19 10:42:58;;;;;;;2.45;1.67;;;;;;;7.76;100.00;101958.66;5095823;27;96795;-27
2023/12/19 10:45:27;;;;;;;2.75;1.80;;;;;;;7.78;100.00;101952.28;5077140;27;100922;-27
2023/12/19 10:47:53;;;;;;;3.03;2.13;;;;;;;7.77;100.00;101947.81;5096289;27;97431;-28
2023/12/19 10:50:18;;;;;;;3.30;2.15;;;;;;;7.82;100.00;101950.38;5095786;27;96410;-28
2023/12/19 10:52:44;;;;;;;2.35;1.92;;;;;;;7.83;100.00;101949.44;5095967;27;96849;-28
2023/12/19 10:55:17;;;;;;;2.50;1.52;;;;;;;7.81;100.00;101937.81;5076510;27;100874;-27
2023/12/19 10:57:46;;;;;;;2.83;1.65;;;;;;;7.79;100.00;101934.25;5077156;27;101323;-28
2023/12/19 11:00:21;;;;;;;3.63;1.90;;;;;;;7.80;100.00;101927.97;5076323;27;96779;-28
2023/12/19 11:02:49;;;;;;;2.88;2.10;;;;;;;7.85;100.00;101920.59;5095539;27;96751;-27
2023/12/19 11:05:20;;;;;;;2.63;1.50;;;;;;;7.84;100.00;101913.41;5093953;27;97520;-28
2023/12/19 11:07:49;;;;;;;4.53;1.63;;;;;;;7.84;100.00;101908.94;5075226;27;100857;-28
2023/12/19 11:10:18;;;;;;;9.93;2.38;;;;;;;7.84;100.00;101892.75;5075486;27;96737;-28
2023/12/19 11:12:45;;;;;;;4.35;2.00;;;;;;;7.85;100.00;101888.22;5077300;27;96752;-27
2023/12/19 11:15:12;;;;;;;3.40;2.47;;;;;;;7.79;100.00;101891.13;5076657;27;101082;-29
2023/12/19 11:17:55;;;;;;;4.20;2.00;;;;;;;7.83;100.00;101896.34;5076632;27;100525;-28